createdAt,value
2019-05-28T00:00:43.219Z,97021.63
2019-05-28T00:03:10.983Z,97012.82
2019-05-28T00:05:38.746Z,97009.29
2019-05-28T00:08:06.536Z,97005.37
2019-05-28T00:10:34.583Z,97007.13
2019-05-28T00:13:02.342Z,97005.17
2019-05-28T00:15:30.439Z,97009.29
2019-05-28T00:17:58.407Z,96998.53
2019-05-28T00:20:26.168Z,97000.48
2019-05-28T00:22:53.958Z,96998.92
2019-05-28T00:25:25.726Z,96990.31
2019-05-28T00:27:51.556Z,96990.12
2019-05-28T00:30:20.924Z,96989.34
2019-05-28T00:32:48.964Z,96992.07
2019-05-28T00:35:17.704Z,96984.25
2019-05-28T00:37:45.494Z,96981.13
2019-05-28T00:40:13.689Z,96978.19
2019-05-28T00:42:41.452Z,96981.12
2019-05-28T00:45:09.411Z,96979.14
2019-05-28T00:47:37.247Z,96975.23
2019-05-28T00:50:05.806Z,96973.08
2019-05-28T00:52:33.587Z,96970.11
2019-05-28T00:55:01.424Z,96972.84
2019-05-28T00:57:29.191Z,96966.39
2019-05-28T00:59:56.980Z,96961.70
2019-05-28T01:02:24.736Z,96958.58
2019-05-28T01:04:52.521Z,96957.78
2019-05-28T01:07:20.291Z,96951.14
2019-05-28T01:09:48.064Z,96957.38
2019-05-28T01:12:15.914Z,96950.55
2019-05-28T01:14:43.691Z,96949.77
2019-05-28T01:17:11.458Z,96947.04
2019-05-28T01:19:39.565Z,96955.64
2019-05-28T01:22:07.644Z,96945.28
2019-05-28T01:24:35.411Z,96944.89
2019-05-28T01:27:03.176Z,96946.66
2019-05-28T01:29:31.118Z,96941.02
2019-05-28T01:31:58.879Z,96949.81
2019-05-28T01:34:26.650Z,96943.56
2019-05-28T01:36:54.748Z,96944.93
2019-05-28T01:39:22.506Z,96943.34
2019-05-28T01:41:50.265Z,96936.30
2019-05-28T01:44:18.631Z,96937.08
2019-05-28T01:46:46.444Z,96932.19
2019-05-28T01:49:14.472Z,96929.06
2019-05-28T01:51:42.261Z,96925.77
2019-05-28T01:54:10.297Z,96923.20
2019-05-28T01:56:38.053Z,96927.70
2019-05-28T01:59:05.825Z,96924.17
2019-05-28T02:01:33.592Z,96921.83
2019-05-28T02:04:01.351Z,96920.66
2019-05-28T02:06:29.421Z,96915.77
2019-05-28T02:08:57.184Z,96916.16
2019-05-28T02:11:24.948Z,96920.08
2019-05-28T02:13:53.159Z,96913.07
2019-05-28T02:16:20.922Z,96917.38
2019-05-28T02:18:48.706Z,96909.55
2019-05-28T02:21:16.487Z,96913.45
2019-05-28T02:23:44.245Z,96914.02
2019-05-28T02:26:12.130Z,96915.38
2019-05-28T02:28:40.619Z,96906.98
2019-05-28T02:31:08.374Z,96914.60
2019-05-28T02:33:36.134Z,96914.60
2019-05-28T02:36:04.319Z,96912.45
2019-05-28T02:38:32.091Z,96912.45
2019-05-28T02:41:00.075Z,96913.22
2019-05-28T02:43:28.022Z,96913.81
2019-05-28T02:45:55.862Z,96908.92
2019-05-28T02:48:23.666Z,96916.74
2019-05-28T02:50:56.554Z,96912.44
2019-05-28T02:53:24.414Z,96910.88
2019-05-28T02:55:52.194Z,96916.94
2019-05-28T02:58:20.058Z,96911.66
2019-05-28T03:00:47.813Z,96913.42
2019-05-28T03:03:15.570Z,96909.90
2019-05-28T03:05:43.364Z,96903.84
2019-05-28T03:08:11.190Z,96903.44
2019-05-28T03:11:01.430Z,96909.30
2019-05-28T03:13:09.140Z,96902.08
2019-05-28T03:15:38.541Z,96905.80
2019-05-28T03:18:06.654Z,96913.03
2019-05-28T03:20:34.510Z,96902.47
2019-05-28T03:23:02.269Z,96898.37
2019-05-28T03:25:30.033Z,96902.31
2019-05-28T03:27:57.807Z,96903.89
2019-05-28T03:30:25.573Z,96897.44
2019-05-28T03:32:53.334Z,96896.84
2019-05-28T03:35:21.636Z,96898.22
2019-05-28T03:37:49.403Z,96898.61
2019-05-28T03:40:19.342Z,96896.06
2019-05-28T03:42:47.131Z,96892.94
2019-05-28T03:45:15.250Z,96891.58
2019-05-28T03:47:43.018Z,96888.45
2019-05-28T03:50:10.898Z,96883.75
2019-05-28T03:52:38.662Z,96874.56
2019-05-28T03:55:06.437Z,96877.89
2019-05-28T03:57:34.564Z,96880.03
2019-05-28T04:00:02.325Z,96877.50
2019-05-28T04:02:30.568Z,96874.95
2019-05-28T04:04:58.352Z,96869.67
2019-05-28T04:07:26.118Z,96876.13
2019-05-28T04:09:53.882Z,96873.39
2019-05-28T04:12:21.676Z,96869.29
2019-05-28T04:14:49.447Z,96866.55
2019-05-28T04:17:17.547Z,96870.84
2019-05-28T04:19:45.683Z,96867.53
2019-05-28T04:22:13.456Z,96864.98
2019-05-28T04:24:41.220Z,96865.38
2019-05-28T04:27:09.004Z,96871.83
2019-05-28T04:29:36.779Z,96865.18
2019-05-28T04:32:04.735Z,96862.25
2019-05-28T04:34:32.863Z,96862.05
2019-05-28T04:37:00.625Z,96852.46
2019-05-28T04:39:28.395Z,96849.14
2019-05-28T04:41:56.175Z,96855.39
2019-05-28T04:44:23.965Z,96854.05
2019-05-28T04:46:51.704Z,96847.01
2019-05-28T04:49:19.796Z,96845.44
2019-05-28T04:51:47.869Z,96842.72
2019-05-28T04:54:15.928Z,96845.23
2019-05-28T04:56:43.708Z,96843.67
2019-05-28T04:59:11.462Z,96845.44
2019-05-28T05:01:39.561Z,96846.23
2019-05-28T05:04:07.342Z,96842.88
2019-05-28T05:06:35.106Z,96840.73
2019-05-28T05:09:02.944Z,96844.87
2019-05-28T05:11:30.724Z,96851.70
2019-05-28T05:13:58.744Z,96845.83
2019-05-28T05:16:26.525Z,96849.34
2019-05-28T05:18:54.299Z,96848.38
2019-05-28T05:21:22.139Z,96849.53
2019-05-28T05:23:50.536Z,96848.95
2019-05-28T05:26:18.696Z,96851.89
2019-05-28T05:28:46.481Z,96853.64
2019-05-28T05:31:14.270Z,96848.36
2019-05-28T05:33:42.560Z,96847.36
2019-05-28T05:36:10.315Z,96844.77
2019-05-28T05:38:38.079Z,96845.16
2019-05-28T05:41:05.944Z,96841.05
2019-05-28T05:43:33.727Z,96849.58
2019-05-28T05:46:01.502Z,96844.90
2019-05-28T05:48:29.289Z,96848.80
2019-05-28T05:50:57.059Z,96854.94
2019-05-28T05:53:24.824Z,96853.00
2019-05-28T05:55:52.610Z,96849.64
2019-05-28T05:58:20.376Z,96856.02
2019-05-28T06:00:48.125Z,96850.74
2019-05-28T06:03:15.903Z,96849.15
2019-05-28T06:05:43.663Z,96849.72
2019-05-28T06:08:11.508Z,96849.95
2019-05-28T06:10:39.266Z,96848.00
2019-05-28T06:13:07.029Z,96842.04
2019-05-28T06:15:34.796Z,96849.03
2019-05-28T06:18:02.718Z,96846.34
2019-05-28T06:20:30.669Z,96846.02
2019-05-28T06:22:58.508Z,96859.77
2019-05-28T06:25:26.343Z,96853.89
2019-05-28T06:27:54.104Z,96853.55
2019-05-28T06:30:22.344Z,96856.88
2019-05-28T06:32:50.135Z,96854.40
2019-05-28T06:35:18.256Z,96856.80
2019-05-28T06:37:46.024Z,96856.47
2019-05-28T06:40:14.242Z,96852.48
2019-05-28T06:42:42.068Z,96859.14
2019-05-28T06:45:10.365Z,96857.20
2019-05-28T06:47:38.142Z,96856.59
2019-05-28T06:50:06.806Z,96867.56
2019-05-28T06:52:34.567Z,96864.07
2019-05-28T06:55:02.637Z,96866.19
2019-05-28T06:57:30.412Z,96857.67
2019-05-28T06:59:58.236Z,96859.41
2019-05-28T07:02:26.355Z,96862.38
2019-05-28T07:04:54.443Z,96861.95
2019-05-28T07:07:22.192Z,96865.86
2019-05-28T07:09:49.967Z,96865.22
2019-05-28T07:12:18.380Z,96865.62
2019-05-28T07:14:46.391Z,96864.65
2019-05-28T07:17:14.255Z,96860.47
2019-05-28T07:19:42.161Z,96855.29
2019-05-28T07:22:09.971Z,96857.88
2019-05-28T07:24:37.744Z,96854.36
2019-05-28T07:27:05.506Z,96855.91
2019-05-28T07:29:33.678Z,96853.63
2019-05-28T07:32:01.452Z,96854.03
2019-05-28T07:34:31.237Z,96850.07
2019-05-28T07:36:58.766Z,96852.64
2019-05-28T07:39:26.595Z,96844.41
2019-05-28T07:41:54.363Z,96847.32
2019-05-28T07:44:22.407Z,96846.13
2019-05-28T07:46:50.195Z,96851.34
2019-05-28T07:49:17.982Z,96857.27
2019-05-28T07:51:45.733Z,96854.77
2019-05-28T07:54:13.515Z,96857.23
2019-05-28T07:56:41.275Z,96864.55
2019-05-28T07:59:09.035Z,96868.25
2019-05-28T08:01:36.824Z,96868.28
2019-05-28T08:04:04.682Z,96870.64
2019-05-28T08:06:32.443Z,96870.81
2019-05-28T08:09:00.221Z,96868.85
2019-05-28T08:11:28.063Z,96870.80
2019-05-28T08:13:55.867Z,96861.36
2019-05-28T08:16:24.390Z,96869.73
2019-05-28T08:18:52.275Z,96869.81
2019-05-28T08:21:20.046Z,96870.75
2019-05-28T08:23:47.818Z,96865.48
2019-05-28T08:26:15.587Z,96871.70
2019-05-28T08:28:43.517Z,96871.68
2019-05-28T08:31:17.308Z,96868.08
2019-05-28T08:33:41.018Z,96867.66
2019-05-28T08:36:08.857Z,96870.97
2019-05-28T08:38:37.018Z,96872.14
2019-05-28T08:41:04.785Z,96869.86
2019-05-28T08:43:32.616Z,96865.02
2019-05-28T08:46:00.493Z,96870.39
2019-05-28T08:48:28.269Z,96867.05
2019-05-28T08:50:56.120Z,96866.42
2019-05-28T08:53:24.324Z,96865.68
2019-05-28T08:55:52.100Z,96875.91
2019-05-28T08:58:19.935Z,96875.91
2019-05-28T09:00:47.721Z,96881.38
2019-05-28T09:03:16.268Z,96883.02
2019-05-28T09:05:44.104Z,96886.30
2019-05-28T09:08:12.191Z,96886.30
2019-05-28T09:10:40.092Z,96881.73
2019-05-28T09:13:07.953Z,96881.55
2019-05-28T09:15:36.671Z,96877.42
2019-05-28T09:18:04.690Z,96876.10
2019-05-28T09:20:32.896Z,96873.44
2019-05-28T09:23:00.734Z,96871.66
2019-05-28T09:25:29.539Z,96865.44
2019-05-28T09:27:57.913Z,96855.50
2019-05-28T09:30:25.913Z,96853.91
2019-05-28T09:32:53.794Z,96859.84
2019-05-28T09:35:22.075Z,96846.30
2019-05-28T09:37:49.848Z,96855.50
2019-05-28T09:40:17.607Z,96855.31
2019-05-28T09:42:45.377Z,96863.96
2019-05-28T09:45:22.616Z,96867.45
2019-05-28T09:47:42.956Z,96869.77
2019-05-28T09:50:29.167Z,96869.12
2019-05-28T09:52:53.568Z,96873.32
2019-05-28T09:55:09.821Z,96874.17
2019-05-28T09:57:46.787Z,96880.52
2019-05-28T10:00:07.390Z,96882.19
2019-05-28T10:02:35.320Z,96884.88
2019-05-28T10:05:03.151Z,96889.40
2019-05-28T10:07:30.992Z,96890.88
2019-05-28T10:09:58.800Z,96887.41
2019-05-28T10:12:26.643Z,96887.95
2019-05-28T10:14:54.475Z,96894.64
2019-05-28T10:17:22.523Z,96892.88
2019-05-28T10:19:50.370Z,96895.98
2019-05-28T10:22:18.583Z,96895.05
2019-05-28T10:24:46.331Z,96890.27
2019-05-28T10:27:14.228Z,96897.68
2019-05-28T10:29:42.437Z,96905.30
2019-05-28T10:32:10.213Z,96902.17
2019-05-28T10:34:38.039Z,96907.27
2019-05-28T10:37:05.826Z,96909.16
2019-05-28T10:39:33.601Z,96910.05
2019-05-28T10:42:01.678Z,96903.64
2019-05-28T10:44:29.472Z,96911.31
2019-05-28T10:46:57.220Z,96909.09
2019-05-28T10:49:25.093Z,96911.09
2019-05-28T10:51:53.256Z,96905.86
2019-05-28T10:54:21.019Z,96909.87
2019-05-28T10:56:49.204Z,96903.81
2019-05-28T10:59:17.002Z,96910.14
2019-05-28T11:01:44.777Z,96903.30
2019-05-28T11:04:12.554Z,96906.78
2019-05-28T11:06:51.335Z,96898.41
2019-05-28T11:09:10.289Z,96895.09
2019-05-28T11:11:38.379Z,96897.94
2019-05-28T11:14:06.312Z,96893.97
2019-05-28T11:16:34.104Z,96897.59
2019-05-28T11:19:01.891Z,96894.56
2019-05-28T11:21:29.668Z,96897.44
2019-05-28T11:23:57.431Z,96894.69
2019-05-28T11:26:25.203Z,96896.02
2019-05-28T11:28:52.979Z,96902.05
2019-05-28T11:31:20.856Z,96894.62
2019-05-28T11:33:49.048Z,96903.12
2019-05-28T11:36:16.832Z,96898.75
2019-05-28T11:38:44.656Z,96899.11
2019-05-28T11:41:12.441Z,96897.88
2019-05-28T11:43:40.240Z,96894.35
2019-05-28T11:46:07.991Z,96896.10
2019-05-28T11:48:35.852Z,96893.67
2019-05-28T11:51:03.716Z,96890.47
2019-05-28T11:53:31.767Z,96887.47
2019-05-28T11:55:59.535Z,96892.63
2019-05-28T11:58:27.632Z,96885.41
2019-05-28T12:00:55.485Z,96889.23
2019-05-28T12:03:23.326Z,96886.77
2019-05-28T12:05:51.117Z,96879.62
2019-05-28T12:08:18.873Z,96884.55
2019-05-28T12:10:46.636Z,96877.70
2019-05-28T12:13:14.512Z,96878.54
2019-05-28T12:15:42.384Z,96885.12
2019-05-28T12:18:10.218Z,96879.06
2019-05-28T12:20:38.143Z,96884.08
2019-05-28T12:23:11.553Z,96888.20
2019-05-28T12:25:35.453Z,96897.14
2019-05-28T12:28:03.432Z,96898.32
2019-05-28T12:30:31.200Z,96899.13
2019-05-28T12:32:58.972Z,96902.90
2019-05-28T12:35:29.715Z,96899.64
2019-05-28T12:37:56.244Z,96909.08
2019-05-28T12:40:24.021Z,96900.64
2019-05-28T12:42:51.804Z,96911.88
2019-05-28T12:45:34.328Z,96906.30
2019-05-28T12:48:07.365Z,96908.56
2019-05-28T12:50:20.990Z,96910.95
2019-05-28T12:52:49.491Z,96915.65
2019-05-28T12:55:17.649Z,96917.98
2019-05-28T12:57:45.587Z,96914.87
2019-05-28T13:00:13.440Z,96919.38
2019-05-28T13:02:41.331Z,96915.56
2019-05-28T13:05:09.731Z,96933.22
2019-05-28T13:07:37.501Z,96930.77
2019-05-28T13:10:06.077Z,96928.50
2019-05-28T13:12:33.986Z,96928.02
2019-05-28T13:15:01.805Z,96936.16
2019-05-28T13:17:29.886Z,96945.08
2019-05-28T13:19:57.678Z,96949.81
2019-05-28T13:22:25.432Z,96951.72
2019-05-28T13:24:53.298Z,96950.69
2019-05-28T13:27:21.371Z,96959.05
2019-05-28T13:29:49.140Z,96959.77
2019-05-28T13:32:16.980Z,96958.13
2019-05-28T13:34:44.811Z,96948.41
2019-05-28T13:37:12.635Z,96953.23
2019-05-28T13:39:40.416Z,96956.77
2019-05-28T13:42:08.532Z,96956.05
2019-05-28T13:44:36.315Z,96958.94
2019-05-28T13:47:04.233Z,96956.80
2019-05-28T13:49:32.007Z,96959.92
2019-05-28T13:52:11.538Z,96960.03
2019-05-28T13:54:29.626Z,96958.63
2019-05-28T13:56:57.395Z,96968.41
2019-05-28T13:59:25.604Z,96967.55
2019-05-28T14:01:53.401Z,96977.38
2019-05-28T14:04:21.283Z,96980.91
2019-05-28T14:06:49.161Z,96987.94
2019-05-28T14:09:17.440Z,96990.97
2019-05-28T14:11:45.209Z,96997.25
2019-05-28T14:14:12.981Z,96998.78
2019-05-28T14:16:40.740Z,96995.28
2019-05-28T14:19:08.520Z,97002.21
2019-05-28T14:21:36.277Z,97008.02
2019-05-28T14:24:04.032Z,97008.95
2019-05-28T14:26:31.816Z,97010.16
2019-05-28T14:28:59.569Z,97019.13
2019-05-28T14:31:27.371Z,97029.78
2019-05-28T14:33:55.157Z,97023.45
2019-05-28T14:36:22.914Z,97024.58
2019-05-28T14:39:02.694Z,97029.54
2019-05-28T14:41:20.184Z,97022.47
2019-05-28T14:43:47.965Z,97017.53
2019-05-28T14:46:15.712Z,97026.77
2019-05-28T14:48:43.492Z,97030.87
2019-05-28T14:51:11.244Z,97034.45
2019-05-28T14:53:39.004Z,97032.89
2019-05-28T14:56:07.122Z,97036.45
2019-05-28T14:58:34.883Z,97035.78
2019-05-28T15:01:02.928Z,97037.53
2019-05-28T15:03:30.843Z,97042.89
2019-05-28T15:05:58.603Z,97046.52
2019-05-28T15:08:26.432Z,97047.70
2019-05-28T15:10:54.206Z,97048.49
2019-05-28T15:13:22.479Z,97055.55
2019-05-28T15:15:50.237Z,97063.01
2019-05-28T15:18:18.019Z,97060.48
2019-05-28T15:20:45.861Z,97069.57
2019-05-28T15:23:13.631Z,97083.39
2019-05-28T15:25:41.412Z,97096.81
2019-05-28T15:28:09.178Z,97107.64
2019-05-28T15:30:36.940Z,97108.89
2019-05-28T15:33:04.718Z,97107.53
2019-05-28T15:35:32.494Z,97112.44
2019-05-28T15:38:00.268Z,97116.21
2019-05-28T15:40:28.358Z,97129.77
2019-05-28T15:43:05.549Z,97125.50
2019-05-28T15:45:26.025Z,97129.44
2019-05-28T15:47:53.798Z,97139.62
2019-05-28T15:50:21.682Z,97146.12
2019-05-28T15:52:49.565Z,97148.27
2019-05-28T15:55:17.439Z,97154.94
2019-05-28T15:57:45.533Z,97163.53
2019-05-28T16:00:15.596Z,97161.56
2019-05-28T16:02:43.375Z,97175.28
2019-05-28T16:05:11.150Z,97184.28
2019-05-28T16:07:38.931Z,97181.67
2019-05-28T16:10:06.924Z,97197.33
2019-05-28T16:12:34.683Z,97203.95
2019-05-28T16:15:02.440Z,97197.88
2019-05-28T16:17:30.797Z,97210.89
2019-05-28T16:19:58.563Z,97213.81
2019-05-28T16:22:26.325Z,97227.03
2019-05-28T16:24:54.110Z,97228.33
2019-05-28T16:27:21.881Z,97229.68
2019-05-28T16:29:49.638Z,97230.25
2019-05-28T16:32:17.427Z,97237.88
2019-05-28T16:34:45.198Z,97236.44
2019-05-28T16:37:12.957Z,97243.68
2019-05-28T16:39:40.740Z,97256.57
2019-05-28T16:42:08.507Z,97254.75
2019-05-28T16:44:36.274Z,97259.71
2019-05-28T16:47:17.160Z,97265.91
2019-05-28T16:49:33.638Z,97261.92
2019-05-28T16:52:01.403Z,97264.95
2019-05-28T16:54:29.239Z,97270.42
2019-05-28T16:56:57.001Z,97260.05
2019-05-28T16:59:24.784Z,97265.68
2019-05-28T17:01:52.549Z,97257.55
2019-05-28T17:04:20.346Z,97257.05
2019-05-28T17:06:48.164Z,97265.88
2019-05-28T17:09:15.944Z,97266.67
2019-05-28T17:11:43.741Z,97268.22
2019-05-28T17:14:11.552Z,97265.50
2019-05-28T17:16:39.358Z,97268.64
2019-05-28T17:19:07.126Z,97275.48
2019-05-28T17:21:35.247Z,97287.45
2019-05-28T17:24:03.032Z,97288.45
2019-05-28T17:26:30.799Z,97292.17
2019-05-28T17:28:58.627Z,97288.27
2019-05-28T17:31:26.435Z,97285.61
2019-05-28T17:33:54.257Z,97282.63
2019-05-28T17:36:22.015Z,97280.97
2019-05-28T17:38:49.802Z,97283.80
2019-05-28T17:41:19.895Z,97282.60
2019-05-28T17:43:47.039Z,97293.39
2019-05-28T17:46:14.815Z,97296.95
2019-05-28T17:48:42.588Z,97295.36
2019-05-28T17:51:10.351Z,97312.56
2019-05-28T17:53:38.206Z,97319.63
2019-05-28T17:56:08.047Z,97321.22
2019-05-28T17:58:35.474Z,97319.78
2019-05-28T18:01:03.249Z,97317.30
2019-05-28T18:03:31.057Z,97322.22
2019-05-28T18:05:58.838Z,97318.12
2019-05-28T18:08:29.320Z,97320.41
2019-05-28T18:11:04.635Z,97325.10
2019-05-28T18:13:28.435Z,97326.98
2019-05-28T18:15:55.964Z,97338.24
2019-05-28T18:18:23.732Z,97338.20
2019-05-28T18:20:51.497Z,97339.91
2019-05-28T18:23:19.275Z,97338.94
2019-05-28T18:25:47.044Z,97336.56
2019-05-28T18:28:14.995Z,97338.27
2019-05-28T18:30:42.756Z,97339.95
2019-05-28T18:33:10.528Z,97345.08
2019-05-28T18:35:38.301Z,97350.11
2019-05-28T18:38:06.153Z,97348.95
2019-05-28T18:40:33.907Z,97353.63
2019-05-28T18:43:01.671Z,97358.03
2019-05-28T18:45:29.940Z,97358.55
2019-05-28T18:47:57.763Z,97356.19
2019-05-28T18:50:25.535Z,97355.70
2019-05-28T18:52:53.331Z,97363.91
2019-05-28T18:55:23.533Z,97369.89
2019-05-28T18:57:51.120Z,97371.63
2019-05-28T19:00:18.993Z,97374.98
2019-05-28T19:02:46.855Z,97376.15
2019-05-28T19:05:14.624Z,97377.44
2019-05-28T19:07:42.414Z,97376.07
2019-05-28T19:10:10.244Z,97383.32
2019-05-28T19:12:38.022Z,97384.33
2019-05-28T19:15:06.049Z,97383.34
2019-05-28T19:17:34.324Z,97391.95
2019-05-28T19:20:02.198Z,97399.41
2019-05-28T19:22:30.325Z,97401.23
2019-05-28T19:24:58.181Z,97401.55
2019-05-28T19:27:26.054Z,97410.63
2019-05-28T19:29:54.123Z,97408.97
2019-05-28T19:32:21.895Z,97409.47
2019-05-28T19:34:49.667Z,97418.63
2019-05-28T19:37:17.474Z,97416.67
2019-05-28T19:39:45.237Z,97424.75
2019-05-28T19:42:13.004Z,97428.84
2019-05-28T19:44:40.803Z,97425.97
2019-05-28T19:47:08.587Z,97428.08
2019-05-28T19:49:36.637Z,97430.55
2019-05-28T19:52:04.564Z,97428.56
2019-05-28T19:54:32.349Z,97440.80
2019-05-28T19:57:00.133Z,97447.00
2019-05-28T19:59:28.017Z,97440.91
2019-05-28T20:01:55.771Z,97442.03
2019-05-28T20:04:23.936Z,97444.55
2019-05-28T20:06:51.760Z,97454.42
2019-05-28T20:09:19.518Z,97460.05
2019-05-28T20:11:47.308Z,97457.73
2019-05-28T20:14:15.424Z,97462.46
2019-05-28T20:16:43.229Z,97463.67
2019-05-28T20:19:10.992Z,97471.63
2019-05-28T20:21:38.772Z,97469.33
2019-05-28T20:24:06.525Z,97475.52
2019-05-28T20:26:34.488Z,97478.05
2019-05-28T20:29:08.223Z,97480.93
2019-05-28T20:31:31.853Z,97486.24
2019-05-28T20:33:59.742Z,97490.09
2019-05-28T20:36:27.527Z,97488.39
2019-05-28T20:38:55.631Z,97489.39
2019-05-28T20:41:23.409Z,97490.98
2019-05-28T20:43:51.182Z,97492.87
2019-05-28T20:46:18.939Z,97494.30
2019-05-28T20:48:46.715Z,97496.75
2019-05-28T20:51:21.524Z,97499.22
2019-05-28T20:53:44.052Z,97498.44
2019-05-28T20:56:11.878Z,97495.06
2019-05-28T20:58:40.712Z,97495.16
2019-05-28T21:01:08.641Z,97496.83
2019-05-28T21:03:36.467Z,97503.08
2019-05-28T21:06:04.620Z,97508.70
2019-05-28T21:08:32.387Z,97503.66
2019-05-28T21:11:00.194Z,97507.69
2019-05-28T21:13:28.018Z,97510.06
2019-05-28T21:15:56.786Z,97512.94
2019-05-28T21:18:24.728Z,97510.78
2019-05-28T21:20:53.597Z,97517.13
2019-05-28T21:23:21.596Z,97522.66
2019-05-28T21:25:50.034Z,97524.33
2019-05-28T21:28:17.911Z,97526.27
2019-05-28T21:30:45.686Z,97528.06
2019-05-28T21:33:13.437Z,97535.45
2019-05-28T21:35:41.362Z,97531.30
2019-05-28T21:38:09.136Z,97545.83
2019-05-28T21:40:37.285Z,97541.54
2019-05-28T21:43:09.590Z,97540.83
2019-05-28T21:45:34.821Z,97540.70
2019-05-28T21:48:03.075Z,97541.48
2019-05-28T21:50:31.029Z,97548.08
2019-05-28T21:52:59.099Z,97542.05
2019-05-28T21:55:26.935Z,97544.03
2019-05-28T21:57:55.821Z,97544.58
2019-05-28T22:00:28.991Z,97556.34
2019-05-28T22:02:56.763Z,97548.97
2019-05-28T22:05:24.821Z,97551.61
2019-05-28T22:07:52.594Z,97561.09
2019-05-28T22:10:20.367Z,97561.45
2019-05-28T22:12:48.171Z,97561.60
2019-05-28T22:15:15.934Z,97562.81
2019-05-28T22:17:43.732Z,97562.31
2019-05-28T22:20:11.581Z,97562.81
2019-05-28T22:22:39.349Z,97557.64
2019-05-28T22:25:07.220Z,97556.28
2019-05-28T22:27:35.624Z,97556.06
2019-05-28T22:30:04.772Z,97556.99
2019-05-28T22:32:33.244Z,97556.80
2019-05-28T22:35:02.069Z,97555.94
2019-05-28T22:37:29.892Z,97562.53
2019-05-28T22:39:59.256Z,97558.94
2019-05-28T22:42:27.109Z,97565.97
2019-05-28T22:44:54.890Z,97568.62
2019-05-28T22:47:22.665Z,97570.41
2019-05-28T22:49:50.476Z,97568.19
2019-05-28T22:52:18.228Z,97563.30
2019-05-28T22:54:46.000Z,97566.52
2019-05-28T22:57:14.121Z,97562.66
2019-05-28T22:59:41.952Z,97564.78
2019-05-28T23:02:09.973Z,97563.09
2019-05-28T23:04:37.756Z,97562.57
2019-05-28T23:07:05.851Z,97557.39
2019-05-28T23:09:33.625Z,97565.87
2019-05-28T23:12:03.740Z,97565.78
2019-05-28T23:14:31.683Z,97562.10
2019-05-28T23:17:00.253Z,97565.56
2019-05-28T23:19:28.443Z,97569.00
2019-05-28T23:21:56.343Z,97567.06
2019-05-28T23:24:24.091Z,97568.13
2019-05-28T23:26:52.146Z,97566.27
2019-05-28T23:29:20.191Z,97568.56
2019-05-28T23:31:48.046Z,97576.78
2019-05-28T23:34:15.956Z,97569.66
2019-05-28T23:36:43.786Z,97572.96
2019-05-28T23:39:11.552Z,97573.09
2019-05-28T23:41:39.578Z,97566.39
2019-05-28T23:44:07.590Z,97564.13
2019-05-28T23:46:35.780Z,97572.98
2019-05-28T23:49:04.112Z,97573.68
2019-05-28T23:51:32.112Z,97569.51
2019-05-28T23:53:59.876Z,97576.09
2019-05-28T23:56:27.658Z,97572.58
2019-05-28T23:58:55.415Z,97572.14
